CheckWX is a tool to help pilots better visualize weather data.  It is not intended as a substitute for an official pre-flight weather briefing.

21:54:01 UTC

GFLL METAR
Lungi International Airport
Freetown, Sierra Leone
Current

4 hours ago

GFLL 251800Z 28008KT 9999 SCT015 FEW026CB 29/23 Q1011 RMK CB-NE
Observed
May-25 @ 18:00 UTC
Wind
  • 280° at 8 KTS
Visibility
10,000+ meters
Flight Rules
VFR
Cloud Levels
  • Scattered at 1,500' AGL
  • Few at 2,600' AGL
Temperature
29°C / 84°F
Dewpoint
23°C / 73°F
Humidity
70%
Altimeter
29.85" Hg
Pressure
1010.92 hPa
Previous

7 hours ago

GFLL 251500Z 28010KT 9999 BKN014 FEW026CB 30/23 Q1011 RMK CB-NE
Observed
May-25 @ 15:00 UTC
Wind
  • 280° at 10 KTS
Visibility
10,000+ meters
Flight Rules
MVFR
Cloud Levels
  • Broken at 1,400' AGL
  • Few at 2,600' AGL
Temperature
30°C / 86°F
Dewpoint
23°C / 73°F
Humidity
66%
Altimeter
29.85" Hg
Pressure
1010.92 hPa
Previous

8 hours ago

GFLL 251400Z 30012KT 9999 BKN013 FEW026CB 30/23 Q1011 RMK CB-NE
Observed
May-25 @ 14:00 UTC
Wind
  • 300° at 12 KTS
Visibility
10,000+ meters
Flight Rules
MVFR
Cloud Levels
  • Broken at 1,300' AGL
  • Few at 2,600' AGL
Temperature
30°C / 86°F
Dewpoint
23°C / 73°F
Humidity
66%
Altimeter
29.85" Hg
Pressure
1010.92 hPa